Time;durP1;ratioP1;P1;durP2;ratioP2;P2;SDS_P1;SDS_P2;PMS_P1;PMS_P2;Temp;Humidity;BMP_temperature;BMP_pressure;BME280_temperature;BME280_humidity;BME280_pressure;Samples;Min_cycle;Max_cycle;Signal;HPM_P1;HPM_P2
2021/01/07 04:19:00;;;;;;;18.02;11.60;;;;;;;2.76;96.20;99018.80;1776912;79;22698;-66
2021/01/07 04:21:27;;;;;;;16.48;11.50;;;;;;;2.74;96.15;99018.83;1749637;82;21067;-65
2021/01/07 04:23:55;;;;;;;12.45;9.08;;;;;;;2.79;96.07;99011.48;1749611;82;21481;-65
2021/01/07 04:26:23;;;;;;;11.68;9.33;;;;;;;2.84;96.07;99010.52;1749615;82;20984;-65
2021/01/07 04:28:51;;;;;;;10.55;8.63;;;;;;;2.93;96.03;99006.94;1749719;81;21056;-66
2021/01/07 04:31:19;;;;;;;11.25;8.68;;;;;;;2.99;95.81;99001.70;1749577;82;20925;-66
2021/01/07 04:33:46;;;;;;;10.35;8.38;;;;;;;3.06;95.66;98989.98;1749624;82;20981;-66
2021/01/07 04:36:14;;;;;;;10.75;8.43;;;;;;;3.14;95.50;98987.72;1749569;80;21194;-66
2021/01/07 04:38:42;;;;;;;10.55;8.13;;;;;;;3.19;95.31;98985.48;1749527;82;21146;-67
2021/01/07 04:41:09;;;;;;;8.85;7.58;;;;;;;3.22;94.92;98987.95;1749592;82;21481;-67
2021/01/07 04:43:37;;;;;;;10.43;8.03;;;;;;;3.23;94.73;98986.23;1720568;82;21044;-66
2021/01/07 04:46:05;;;;;;;8.85;6.55;;;;;;;3.26;94.70;98987.03;1735326;81;21170;-66
2021/01/07 04:48:33;;;;;;;9.68;7.40;;;;;;;3.31;94.71;98986.94;1719723;83;21434;-66
2021/01/07 04:51:01;;;;;;;8.08;6.85;;;;;;;3.37;94.52;98990.25;1719698;83;21124;-67
2021/01/07 04:53:28;;;;;;;7.58;6.78;;;;;;;3.41;94.23;98984.58;1719717;83;21485;-66
2021/01/07 04:55:56;;;;;;;8.18;7.12;;;;;;;3.43;93.91;98985.39;1719713;83;21124;-66
2021/01/07 04:58:24;;;;;;;9.53;7.47;;;;;;;3.41;93.87;98984.58;1691630;83;21155;-66
2021/01/07 05:00:53;;;;;;;7.40;6.35;;;;;;;3.42;93.72;98981.98;1719737;83;21392;-66
2021/01/07 05:03:22;;;;;;;8.70;6.97;;;;;;;3.42;93.65;98976.84;1719655;83;21103;-66
2021/01/07 05:05:53;;;;;;;10.13;6.40;;;;;;;3.46;93.66;98978.47;1719743;83;21084;-66
2021/01/07 05:08:20;;;;;;;7.28;6.12;;;;;;;3.52;93.51;98980.52;1692224;83;21059;-66
2021/01/07 05:10:47;;;;;;;7.75;5.53;;;;;;;3.53;93.34;98976.63;1719722;83;21068;-67
2021/01/07 05:13:16;;;;;;;7.85;6.17;;;;;;;3.55;93.25;98977.89;1719727;83;21438;-67
2021/01/07 05:15:44;;;;;;;7.90;6.70;;;;;;;3.56;93.16;98975.73;1719666;83;21123;-67
2021/01/07 05:18:12;;;;;;;14.28;6.45;;;;;;;3.59;93.10;98975.23;1719957;83;21171;-67
2021/01/07 05:20:40;;;;;;;9.70;6.22;;;;;;;3.65;93.07;98974.23;1720493;83;21477;-67
2021/01/07 05:23:08;;;;;;;11.25;6.83;;;;;;;3.68;92.93;98971.16;1720491;82;21065;-67
2021/01/07 05:25:42;;;;;;;7.37;6.40;;;;;;;3.69;92.73;98965.57;1694137;83;21376;-67
2021/01/07 05:28:10;;;;;;;7.75;6.42;;;;;;;3.74;92.75;98974.05;1720380;83;21536;-66
2021/01/07 05:30:38;;;;;;;7.15;6.03;;;;;;;3.79;92.57;98972.22;1648622;83;21105;-66
2021/01/07 05:33:08;;;;;;;7.80;6.45;;;;;;;3.82;92.44;98975.98;1719972;83;21119;-66
2021/01/07 05:35:37;;;;;;;9.40;7.45;;;;;;;3.80;92.18;98967.02;1720084;83;21135;-66
2021/01/07 05:38:06;;;;;;;8.58;7.05;;;;;;;3.81;92.25;98971.72;1719871;83;21344;-66
2021/01/07 05:40:35;;;;;;;10.80;7.87;;;;;;;3.83;92.04;98966.10;1719902;82;21178;-66
2021/01/07 05:43:10;;;;;;;11.85;9.13;;;;;;;3.85;91.89;98959.64;1719925;83;21186;-66
2021/01/07 05:45:39;;;;;;;9.43;8.20;;;;;;;3.84;91.89;98961.37;1720026;82;21068;-67
2021/01/07 05:48:08;;;;;;;12.70;9.05;;;;;;;3.87;91.99;98957.88;1719987;83;21500;-67
2021/01/07 05:50:38;;;;;;;12.55;8.20;;;;;;;3.91;92.02;98953.08;1693419;83;21302;-67
2021/01/07 05:53:06;;;;;;;13.08;7.97;;;;;;;3.97;91.96;98952.52;1720026;83;21104;-67
2021/01/07 05:55:34;;;;;;;9.90;7.65;;;;;;;4.06;91.83;98948.42;1719982;83;21574;-67
2021/01/07 05:58:02;;;;;;;9.35;7.78;;;;;;;4.13;91.49;98942.26;1719894;83;21068;-66
2021/01/07 06:00:34;;;;;;;14.23;7.90;;;;;;;4.14;91.27;98945.67;1719943;83;21060;-66
2021/01/07 06:03:03;;;;;;;9.70;7.53;;;;;;;4.16;91.33;98947.78;1720186;83;21245;-66
2021/01/07 06:05:30;;;;;;;13.62;10.75;;;;;;;4.20;91.24;98954.98;1719887;82;21508;-67
2021/01/07 06:07:59;;;;;;;17.77;13.00;;;;;;;4.26;91.06;98948.38;1719902;83;21469;-67
2021/01/07 06:10:27;;;;;;;9.50;8.35;;;;;;;4.31;91.06;98939.67;1719928;83;21072;-67
2021/01/07 06:12:56;;;;;;;15.80;7.33;;;;;;;4.34;90.66;98935.74;1719923;83;21561;-67
2021/01/07 06:15:23;;;;;;;8.33;7.15;;;;;;;4.37;90.73;98934.82;1719897;83;21380;-66
2021/01/07 06:17:51;;;;;;;7.58;5.72;;;;;;;4.41;90.37;98924.38;1716029;83;21594;-65
2021/01/07 06:20:21;;;;;;;9.13;6.87;;;;;;;4.43;90.31;98922.62;1686566;84;21089;-66
2021/01/07 06:22:53;;;;;;;8.28;6.90;;;;;;;4.46;90.08;98913.98;1706393;83;21117;-66
2021/01/07 06:25:22;;;;;;;9.38;7.12;;;;;;;4.46;89.83;98915.27;1706443;84;21489;-67
2021/01/07 06:27:52;;;;;;;10.63;7.62;;;;;;;4.41;89.71;98911.95;1706412;84;22292;-67
2021/01/07 06:30:25;;;;;;;9.35;7.40;;;;;;;4.38;89.82;98928.35;1706112;84;21160;-67
2021/01/07 06:33:08;;;;;;;8.90;6.80;;;;;;;4.39;89.85;98929.20;1706404;84;21166;-67
2021/01/07 06:35:39;;;;;;;10.03;7.37;;;;;;;4.39;89.70;98917.61;1706524;84;21140;-67
2021/01/07 06:38:06;;;;;;;9.03;7.65;;;;;;;4.37;89.80;98922.80;1706497;84;21568;-67
2021/01/07 06:40:41;;;;;;;8.85;7.65;;;;;;;4.38;89.89;98929.64;1706319;84;21203;-66
2021/01/07 06:43:16;;;;;;;7.28;6.45;;;;;;;4.40;89.96;98924.42;1706350;84;21104;-66
2021/01/07 06:45:51;;;;;;;8.58;7.22;;;;;;;4.46;89.97;98926.84;1686823;84;21124;-66
2021/01/07 06:48:33;;;;;;;15.43;8.08;;;;;;;4.49;89.87;98916.47;1706398;84;21065;-67
2021/01/07 06:51:03;;;;;;;9.85;7.87;;;;;;;4.52;89.79;98914.27;1706374;84;21105;-67
2021/01/07 06:53:36;;;;;;;10.48;7.37;;;;;;;4.57;89.94;98915.84;1706408;84;21201;-66
2021/01/07 06:56:17;;;;;;;6.87;6.12;;;;;;;4.63;89.56;98896.79;1706470;84;21115;-67
2021/01/07 06:58:46;;;;;;;10.53;7.53;;;;;;;4.67;89.45;98899.25;1706361;84;21148;-68
2021/01/07 07:01:18;;;;;;;9.15;7.42;;;;;;;4.69;89.50;98889.75;1706347;84;21128;-67
2021/01/07 07:03:52;;;;;;;9.95;7.05;;;;;;;4.76;89.47;98902.87;1706400;84;21242;-68
2021/01/07 07:06:25;;;;;;;9.00;7.42;;;;;;;4.77;89.06;98895.55;1706383;83;21208;-67
2021/01/07 07:08:53;;;;;;;9.95;7.67;;;;;;;4.80;89.12;98893.31;1706450;82;21172;-65
2021/01/07 07:11:31;;;;;;;8.75;7.17;;;;;;;4.82;89.00;98895.41;1706338;84;21080;-66
2021/01/07 07:14:01;;;;;;;9.33;7.50;;;;;;;4.86;89.16;98903.46;1706553;84;21533;-67
2021/01/07 07:16:31;;;;;;;9.43;8.03;;;;;;;4.95;89.01;98897.22;1706433;84;21493;-66
2021/01/07 07:18:59;;;;;;;9.78;7.53;;;;;;;4.95;88.82;98890.33;1706227;83;21191;-67
2021/01/07 07:21:28;;;;;;;7.42;6.65;;;;;;;5.01;88.98;98893.16;1706276;84;21996;-67
2021/01/07 07:24:09;;;;;;;8.18;7.00;;;;;;;5.12;88.87;98884.70;1664110;84;21123;-67
2021/01/07 07:26:40;;;;;;;8.53;7.30;;;;;;;5.18;88.46;98883.24;1706380;82;21080;-66
2021/01/07 07:29:12;;;;;;;8.73;7.15;;;;;;;5.18;88.25;98884.09;1706417;84;21088;-67
2021/01/07 07:31:43;;;;;;;9.00;7.47;;;;;;;5.25;88.40;98882.16;1706704;84;21529;-66
2021/01/07 07:34:13;;;;;;;9.17;8.23;;;;;;;5.36;88.13;98881.85;1706539;82;21352;-67
2021/01/07 07:36:42;;;;;;;9.75;8.85;;;;;;;5.45;87.77;98878.98;1706313;83;21100;-66
2021/01/07 07:39:10;;;;;;;10.45;9.45;;;;;;;5.53;87.67;98879.61;1706302;83;21140;-67
2021/01/07 07:41:41;;;;;;;10.58;8.38;;;;;;;5.61;87.42;98871.17;1706423;84;21505;-67
2021/01/07 07:44:09;;;;;;;8.23;7.33;;;;;;;5.70;87.34;98867.47;1706359;84;21365;-67
2021/01/07 07:46:37;;;;;;;8.98;7.22;;;;;;;5.78;86.77;98859.90;1706233;82;21068;-66
2021/01/07 07:49:09;;;;;;;9.80;6.70;;;;;;;5.82;86.52;98874.37;1706308;84;21152;-67
2021/01/07 07:51:35;;;;;;;12.58;9.65;;;;;;;5.83;86.06;98874.77;1706350;83;21659;-67
2021/01/07 07:54:06;;;;;;;12.05;8.45;;;;;;;5.77;86.16;98878.86;1706321;84;21615;-67
2021/01/07 07:56:34;;;;;;;31.40;20.17;;;;;;;5.77;86.29;98879.30;1706309;83;22295;-67
2021/01/07 07:59:05;;;;;;;22.93;15.32;;;;;;;5.76;86.10;98876.32;1705890;83;21157;-67
2021/01/07 08:01:36;;;;;;;13.53;9.65;;;;;;;5.74;86.25;98873.78;1706380;84;21577;-66
2021/01/07 08:04:13;;;;;;;10.32;6.83;;;;;;;5.79;86.17;98860.75;1706327;83;21729;-66
2021/01/07 08:06:43;;;;;;;8.20;6.70;;;;;;;5.82;86.09;98852.88;1706290;83;21088;-66
2021/01/07 08:09:14;;;;;;;7.03;5.70;;;;;;;5.82;86.19;98851.14;1706359;83;21416;-67
2021/01/07 08:11:51;;;;;;;5.53;4.85;;;;;;;5.87;86.24;98847.97;1706246;84;21088;-67
2021/01/07 08:14:25;;;;;;;6.85;5.50;;;;;;;5.92;85.87;98840.13;1706102;84;21524;-66
2021/01/07 08:16:56;;;;;;;6.78;5.20;;;;;;;5.90;86.08;98839.33;1706332;83;21217;-67
2021/01/07 08:19:32;;;;;;;7.70;5.15;;;;;;;5.93;86.00;98828.91;1711381;83;21135;-70
2021/01/07 08:22:01;;;;;;;7.25;6.20;;;;;;;5.93;85.79;98829.35;1714238;83;21516;-66
2021/01/07 08:24:29;;;;;;;7.00;5.95;;;;;;;5.87;86.19;98823.91;1714228;83;21532;-66
2021/01/07 08:27:19;;;;;;;9.30;7.10;;;;;;;5.86;86.37;98823.06;1714151;83;21163;-66
2021/01/07 08:29:49;;;;;;;8.40;5.90;;;;;;;5.87;86.49;98818.74;1714195;82;21119;-67
2021/01/07 08:32:22;;;;;;;5.97;4.10;;;;;;;5.89;86.66;98805.37;1686414;83;21144;-66
2021/01/07 08:34:50;;;;;;;8.23;5.92;;;;;;;5.93;86.74;98804.83;1714334;83;26668;-67
2021/01/07 08:37:22;;;;;;;7.75;6.95;;;;;;;5.98;86.85;98802.50;1714107;83;21076;-66
2021/01/07 08:39:49;;;;;;;10.65;7.10;;;;;;;6.03;86.85;98798.01;1714312;83;21071;-67
2021/01/07 08:42:17;;;;;;;8.88;5.60;;;;;;;6.05;86.78;98791.05;1714253;83;21023;-66
2021/01/07 08:44:45;;;;;;;5.42;4.62;;;;;;;6.06;86.79;98783.71;1714186;83;21140;-67
2021/01/07 08:47:24;;;;;;;6.22;4.58;;;;;;;6.08;86.88;98779.34;1686305;83;21163;-66
2021/01/07 08:50:09;;;;;;;4.28;3.72;;;;;;;6.12;86.72;98765.44;1714106;83;21175;-66
2021/01/07 08:52:52;;;;;;;7.35;4.53;;;;;;;6.09;86.72;98761.66;1713810;83;21072;-67
2021/01/07 08:55:21;;;;;;;5.40;4.15;;;;;;;6.06;86.84;98751.44;1714362;83;21071;-67
2021/01/07 08:57:48;;;;;;;6.30;4.72;;;;;;;6.05;87.11;98748.46;1714165;83;21072;-67
2021/01/07 09:00:20;;;;;;;5.00;4.40;;;;;;;6.07;87.25;98744.54;1714126;83;21471;-67
2021/01/07 09:02:54;;;;;;;6.78;5.08;;;;;;;6.15;87.56;98734.35;1686075;83;21103;-66
2021/01/07 09:05:21;;;;;;;6.70;5.58;;;;;;;6.23;87.46;98729.73;1685854;83;21092;-68
2021/01/07 09:07:49;;;;;;;6.42;5.70;;;;;;;6.31;87.48;98727.34;1714311;82;21112;-68
2021/01/07 09:10:24;;;;;;;6.00;5.22;;;;;;;6.35;87.56;98718.14;1714325;82;21547;-68
2021/01/07 09:12:52;;;;;;;6.50;5.72;;;;;;;6.44;87.70;98712.63;1714372;83;21347;-66
2021/01/07 09:15:25;;;;;;;9.13;8.25;;;;;;;6.56;87.42;98710.06;1714251;82;21509;-66
2021/01/07 09:17:55;;;;;;;6.53;5.87;;;;;;;6.60;87.34;98701.72;1714422;82;21143;-66
2021/01/07 09:20:33;;;;;;;5.62;5.00;;;;;;;6.62;87.25;98694.75;1719610;83;21186;-68
2021/01/07 09:23:04;;;;;;;5.10;4.58;;;;;;;6.59;87.27;98694.89;1719917;83;21075;-67
2021/01/07 09:25:31;;;;;;;7.97;4.47;;;;;;;6.60;87.42;98685.77;1719860;83;21212;-68
2021/01/07 09:27:59;;;;;;;6.75;5.22;;;;;;;6.62;87.22;98680.54;1719868;83;21994;-67
2021/01/07 09:30:27;;;;;;;6.03;4.58;;;;;;;6.63;87.42;98678.34;1719927;83;21139;-68
2021/01/07 09:32:56;;;;;;;6.40;5.55;;;;;;;6.66;87.55;98673.07;1719933;83;21123;-67
2021/01/07 09:35:24;;;;;;;7.17;5.72;;;;;;;6.70;87.48;98661.27;1719936;83;21579;-66
2021/01/07 09:37:53;;;;;;;5.28;4.78;;;;;;;6.73;87.35;98649.98;1718670;83;21386;-67
2021/01/07 09:40:23;;;;;;;6.37;5.72;;;;;;;6.77;87.34;98653.69;1719860;83;21103;-66
2021/01/07 09:42:50;;;;;;;6.75;5.50;;;;;;;6.80;87.26;98650.95;1719945;83;21039;-67
2021/01/07 09:45:18;;;;;;;8.25;6.95;;;;;;;6.78;87.27;98641.61;1719877;82;21056;-67
2021/01/07 09:47:45;;;;;;;6.80;5.83;;;;;;;6.77;87.44;98638.17;1719941;82;21559;-67
2021/01/07 09:50:13;;;;;;;6.33;5.47;;;;;;;6.81;87.53;98636.28;1719883;83;23490;-67
2021/01/07 09:52:41;;;;;;;4.47;4.05;;;;;;;6.84;87.61;98622.80;1719850;83;21099;-67
2021/01/07 09:55:10;;;;;;;5.58;3.87;;;;;;;6.90;87.52;98627.73;1719899;83;21072;-67
2021/01/07 09:57:38;;;;;;;4.90;4.28;;;;;;;6.88;87.45;98617.91;1693567;83;21079;-67
2021/01/07 10:00:07;;;;;;;3.72;3.42;;;;;;;6.89;87.60;98616.16;1719922;82;21159;-68
2021/01/07 10:02:35;;;;;;;3.25;2.65;;;;;;;6.93;87.57;98610.42;1719886;83;21368;-67
2021/01/07 10:05:04;;;;;;;5.80;3.77;;;;;;;6.93;87.44;98606.09;1719852;83;21163;-65
2021/01/07 10:07:31;;;;;;;7.70;4.28;;;;;;;6.95;87.67;98604.29;1719930;83;21051;-67
2021/01/07 10:09:59;;;;;;;3.67;3.35;;;;;;;6.97;87.73;98594.73;1719893;83;21072;-67
2021/01/07 10:12:26;;;;;;;3.95;3.47;;;;;;;7.03;87.72;98593.16;1719926;83;21563;-67
2021/01/07 10:14:54;;;;;;;6.83;3.62;;;;;;;7.07;87.49;98589.55;1719917;83;21386;-66
2021/01/07 10:17:22;;;;;;;5.22;4.33;;;;;;;7.06;87.37;98581.41;1719830;83;21111;-67
2021/01/07 10:19:49;;;;;;;4.20;3.80;;;;;;;7.07;87.42;98571.45;1711976;83;21045;-67
2021/01/07 10:22:19;;;;;;;5.60;4.42;;;;;;;7.09;87.48;98573.98;1706477;84;21112;-67
2021/01/07 10:24:47;;;;;;;10.00;6.70;;;;;;;7.11;87.58;98560.54;1651081;84;21143;-66
2021/01/07 10:27:17;;;;;;;7.40;6.70;;;;;;;7.15;87.42;98556.92;1706363;84;21317;-68
2021/01/07 10:29:46;;;;;;;12.50;9.75;;;;;;;7.18;87.49;98547.75;1706291;83;21159;-66
2021/01/07 10:32:18;;;;;;;13.30;9.65;;;;;;;7.21;87.47;98545.01;1706372;83;21106;-66
2021/01/07 10:34:49;;;;;;;13.20;9.58;;;;;;;7.22;87.62;98538.94;1706504;84;21165;-68
2021/01/07 10:37:20;;;;;;;11.60;8.53;;;;;;;7.30;87.57;98532.98;1706511;84;21556;-67
2021/01/07 10:39:49;;;;;;;11.40;6.50;;;;;;;7.32;87.40;98523.42;1705976;83;21211;-67
2021/01/07 10:42:18;;;;;;;11.55;8.80;;;;;;;7.35;87.40;98517.28;1706395;84;21060;-67
2021/01/07 10:44:47;;;;;;;14.03;10.05;;;;;;;7.40;87.47;98515.30;1706336;84;21096;-67
2021/01/07 10:47:15;;;;;;;10.08;7.33;;;;;;;7.47;87.47;98504.64;1706331;82;21163;-67
2021/01/07 10:49:45;;;;;;;12.63;9.63;;;;;;;7.56;87.43;98497.77;1706469;84;21193;-67
2021/01/07 10:52:24;;;;;;;18.48;12.00;;;;;;;7.64;87.18;98488.80;1706261;84;21412;-67
2021/01/07 10:55:28;;;;;;;12.07;9.35;;;;;;;7.70;86.87;98486.79;1706294;84;21088;-66
2021/01/07 10:58:22;;;;;;;11.90;10.05;;;;;;;7.75;86.65;98479.66;1706351;84;21140;-66
2021/01/07 11:01:16;;;;;;;7.75;6.55;;;;;;;7.76;86.63;98469.70;1706458;84;21485;-68
2021/01/07 11:04:25;;;;;;;8.53;6.30;;;;;;;7.77;86.45;98458.44;1706374;84;21148;-67
2021/01/07 11:07:14;;;;;;;8.05;6.87;;;;;;;7.84;86.53;98457.67;1706366;84;21384;-66
2021/01/07 11:09:43;;;;;;;6.78;5.15;;;;;;;7.99;86.57;98452.26;1706370;84;21874;-67
2021/01/07 11:12:27;;;;;;;7.12;5.55;;;;;;;8.10;86.24;98441.77;1706464;84;21079;-67
2021/01/07 11:14:59;;;;;;;7.87;6.90;;;;;;;8.21;86.04;98437.34;1706485;82;21147;-68
2021/01/07 11:17:27;;;;;;;8.00;5.95;;;;;;;8.33;85.77;98441.14;1706496;84;21135;-67
2021/01/07 11:19:55;;;;;;;5.20;4.70;;;;;;;8.40;85.24;98437.32;1706161;83;21369;-67
2021/01/07 11:22:28;;;;;;;6.08;5.33;;;;;;;8.39;84.79;98433.08;1706257;84;21162;-67
2021/01/07 11:24:57;;;;;;;7.58;6.80;;;;;;;8.29;84.76;98430.89;1706474;83;28518;-67
2021/01/07 11:27:25;;;;;;;6.97;5.72;;;;;;;8.21;84.87;98421.80;1706398;84;21577;-67
2021/01/07 11:29:53;;;;;;;7.97;7.17;;;;;;;8.18;84.97;98421.52;1706354;82;21179;-66
2021/01/07 11:32:21;;;;;;;7.97;6.75;;;;;;;8.15;85.07;98410.47;1706381;84;21494;-67
2021/01/07 11:34:49;;;;;;;6.33;5.67;;;;;;;8.15;85.02;98414.35;1706253;84;21089;-67
2021/01/07 11:37:39;;;;;;;7.90;7.15;;;;;;;8.11;85.02;98407.64;1706392;83;21564;-68
2021/01/07 11:40:11;;;;;;;7.33;6.55;;;;;;;8.07;85.32;98405.65;1706167;84;21167;-66
2021/01/07 11:43:24;;;;;;;7.40;6.58;;;;;;;8.08;85.35;98406.48;1706354;84;21524;-67
2021/01/07 11:46:00;;;;;;;6.05;5.45;;;;;;;8.09;85.36;98396.05;1706409;82;21206;-67
2021/01/07 11:48:30;;;;;;;5.62;5.00;;;;;;;8.15;85.40;98393.63;1706392;84;21083;-67
2021/01/07 11:51:07;;;;;;;4.55;4.15;;;;;;;8.14;84.91;98387.61;1706274;84;21057;-68
2021/01/07 11:53:34;;;;;;;8.00;5.95;;;;;;;8.08;85.08;98381.43;1706368;82;21164;-67
2021/01/07 11:56:03;;;;;;;7.33;6.37;;;;;;;8.05;85.04;98378.14;1706339;83;21008;-66
2021/01/07 11:58:31;;;;;;;6.28;5.67;;;;;;;7.99;85.06;98382.34;1706363;84;21132;-67
2021/01/07 12:01:02;;;;;;;5.78;4.80;;;;;;;7.93;85.24;98372.66;1706266;84;21072;-67
2021/01/07 12:03:31;;;;;;;6.45;4.60;;;;;;;7.88;85.38;98368.61;1706309;83;21096;-66
2021/01/07 12:06:07;;;;;;;5.08;4.65;;;;;;;7.86;85.42;98365.25;1706329;84;21060;-66
2021/01/07 12:09:10;;;;;;;4.87;4.47;;;;;;;7.83;85.60;98361.05;1706340;84;21563;-66
2021/01/07 12:12:08;;;;;;;7.00;4.85;;;;;;;7.81;85.84;98355.11;1706315;84;22153;-68
2021/01/07 12:14:42;;;;;;;5.35;4.37;;;;;;;7.82;85.86;98349.02;1706286;83;21584;-68
2021/01/07 12:17:11;;;;;;;4.97;4.35;;;;;;;7.78;85.86;98347.52;1706291;83;21509;-66
2021/01/07 12:19:40;;;;;;;6.37;5.78;;;;;;;7.78;86.19;98337.62;1709501;83;21086;-66
2021/01/07 12:22:08;;;;;;;7.25;5.45;;;;;;;7.78;86.29;98333.28;1719820;83;21063;-66
2021/01/07 12:24:36;;;;;;;6.40;5.80;;;;;;;7.82;86.38;98330.06;1719881;83;22429;-66
2021/01/07 12:27:07;;;;;;;6.65;5.67;;;;;;;7.83;86.37;98329.98;1719762;83;21127;-66
2021/01/07 12:29:38;;;;;;;5.90;5.35;;;;;;;7.87;86.60;98320.33;1694135;83;21139;-66
2021/01/07 12:32:21;;;;;;;6.62;5.37;;;;;;;7.97;86.59;98320.73;1719858;82;21123;-66
2021/01/07 12:35:24;;;;;;;7.17;6.50;;;;;;;8.07;86.47;98315.47;1712014;83;21476;-66
2021/01/07 12:38:08;;;;;;;8.93;6.78;;;;;;;8.12;86.29;98310.45;1719910;83;22340;-66
2021/01/07 12:40:35;;;;;;;6.55;5.90;;;;;;;8.19;86.08;98312.28;1719994;83;21139;-66
2021/01/07 12:43:06;;;;;;;6.85;6.15;;;;;;;8.25;85.80;98304.19;1719950;83;21155;-67
2021/01/07 12:45:35;;;;;;;8.75;6.58;;;;;;;8.27;85.64;98299.31;1719963;82;21086;-67
2021/01/07 12:48:04;;;;;;;7.47;6.42;;;;;;;8.26;85.38;98297.63;1719991;83;21167;-67
2021/01/07 12:50:32;;;;;;;7.65;6.78;;;;;;;8.27;85.47;98293.29;1720003;83;21361;-66
2021/01/07 12:53:00;;;;;;;7.70;6.90;;;;;;;8.24;85.17;98286.97;1719893;83;21107;-66
2021/01/07 12:55:28;;;;;;;11.00;7.17;;;;;;;8.15;85.18;98290.88;1719950;83;21071;-67
2021/01/07 12:58:18;;;;;;;7.83;6.72;;;;;;;8.13;85.50;98281.05;1719936;83;21128;-67
2021/01/07 13:00:57;;;;;;;10.18;8.70;;;;;;;8.15;85.49;98283.11;1719980;83;21168;-66
2021/01/07 13:04:05;;;;;;;8.68;7.00;;;;;;;8.17;85.54;98273.51;1720041;83;22266;-66
2021/01/07 13:06:49;;;;;;;7.33;6.62;;;;;;;8.22;85.51;98266.77;1719924;82;21108;-68
2021/01/07 13:09:16;;;;;;;8.75;7.30;;;;;;;8.27;85.39;98269.52;1693427;83;21202;-66
2021/01/07 13:11:43;;;;;;;8.35;6.58;;;;;;;8.29;85.10;98259.92;1718660;82;21201;-67
2021/01/07 13:14:11;;;;;;;8.00;7.20;;;;;;;8.29;85.13;98263.80;1718988;83;21635;-67
2021/01/07 13:16:39;;;;;;;7.65;5.78;;;;;;;8.33;85.00;98261.09;1693257;83;21241;-67
2021/01/07 13:19:07;;;;;;;7.95;6.30;;;;;;;8.26;84.91;98257.48;1719541;83;21163;-66
2021/01/07 13:21:34;;;;;;;8.50;6.33;;;;;;;8.23;85.00;98255.05;1719520;83;21154;-66
2021/01/07 13:24:06;;;;;;;8.30;7.33;;;;;;;8.27;85.08;98250.55;1719602;83;22057;-66
2021/01/07 13:26:33;;;;;;;6.58;5.92;;;;;;;8.33;85.03;98252.03;1719919;83;21204;-66
2021/01/07 13:29:01;;;;;;;8.30;6.83;;;;;;;8.37;84.91;98249.66;1719814;83;21757;-66
2021/01/07 13:31:30;;;;;;;7.37;6.53;;;;;;;8.38;84.76;98249.59;1719857;83;21072;-67
2021/01/07 13:33:58;;;;;;;7.78;6.90;;;;;;;8.39;84.79;98242.66;1719640;83;21123;-66
2021/01/07 13:36:26;;;;;;;6.95;6.25;;;;;;;8.39;84.57;98242.66;1719907;83;21138;-67
2021/01/07 13:38:55;;;;;;;7.42;5.97;;;;;;;8.41;84.60;98235.61;1693752;83;21571;-67
2021/01/07 13:41:22;;;;;;;6.92;6.12;;;;;;;8.42;84.43;98234.23;1719910;83;21515;-67
2021/01/07 13:43:50;;;;;;;6.62;5.90;;;;;;;8.38;84.34;98238.38;1719844;83;21496;-67
2021/01/07 13:46:21;;;;;;;6.75;6.05;;;;;;;8.35;84.37;98238.54;1719995;82;21524;-67
2021/01/07 13:48:57;;;;;;;6.75;6.15;;;;;;;8.30;84.44;98234.85;1719916;83;21060;-67
2021/01/07 13:51:24;;;;;;;7.17;5.95;;;;;;;8.30;84.59;98239.58;1720062;83;21131;-65
2021/01/07 13:53:52;;;;;;;8.15;7.33;;;;;;;8.34;84.59;98232.52;1719965;83;21512;-66
2021/01/07 13:56:19;;;;;;;8.50;7.50;;;;;;;8.38;84.38;98231.45;1719945;83;21115;-67
2021/01/07 13:58:49;;;;;;;9.23;6.97;;;;;;;8.39;84.43;98223.22;1719866;83;21122;-67
2021/01/07 14:01:16;;;;;;;7.00;6.30;;;;;;;8.41;84.35;98223.49;1719909;83;21123;-67
2021/01/07 14:03:44;;;;;;;12.63;7.22;;;;;;;8.41;84.16;98218.77;1720011;83;21636;-67
2021/01/07 14:06:11;;;;;;;7.47;6.67;;;;;;;8.36;84.07;98214.31;1693375;83;21975;-67
